createdAt,value
2023-05-12T00:00:36.387Z,100008.91
2023-05-12T00:03:04.531Z,100017.69
2023-05-12T00:05:31.890Z,99994.78
2023-05-12T00:07:58.976Z,100023.78
2023-05-12T00:10:28.668Z,100029.94
2023-05-12T00:12:55.893Z,100026.44
2023-05-12T00:15:23.326Z,100022.03
2023-05-12T00:17:52.530Z,100021.94
2023-05-12T00:20:20.056Z,100020.19
2023-05-12T00:22:47.410Z,100018.44
2023-05-12T00:25:14.478Z,100012.31
2023-05-12T00:27:41.556Z,100012.31
2023-05-12T00:30:09.266Z,100002.63
2023-05-12T00:32:36.545Z,100016.66
2023-05-12T00:35:04.231Z,100008.75
2023-05-12T00:37:31.714Z,100009.66
2023-05-12T00:39:58.751Z,100028.97
2023-05-12T00:42:25.769Z,100025.47
2023-05-12T00:44:52.864Z,100028.09
2023-05-12T00:47:20.759Z,100025.44
2023-05-12T00:49:47.766Z,100022.81
2023-05-12T00:52:14.833Z,100016.66
2023-05-12T00:54:43.330Z,99994.66
2023-05-12T00:57:11.680Z,100016.63
2023-05-12T00:59:38.725Z,100008.72
2023-05-12T01:02:07.458Z,100017.53
2023-05-12T01:04:35.855Z,100003.41
2023-05-12T01:07:05.816Z,100013.09
2023-05-12T01:09:33.718Z,100014.81
2023-05-12T01:12:01.115Z,100003.38
2023-05-12T01:14:29.580Z,99999.84
2023-05-12T01:17:00.259Z,100024.47
2023-05-12T01:19:41.552Z,100024.47
2023-05-12T01:22:12.442Z,100003.38
2023-05-12T01:24:54.198Z,99991.06
2023-05-12T01:27:24.105Z,100015.66
2023-05-12T01:29:52.525Z,100028.00
2023-05-12T01:32:20.799Z,100020.94
2023-05-12T01:34:48.344Z,99996.28
2023-05-12T01:37:16.202Z,100024.41
2023-05-12T01:39:44.353Z,100021.75
2023-05-12T01:42:17.679Z,99997.97
2023-05-12T01:44:45.924Z,100020.84
2023-05-12T01:47:16.008Z,100002.38
2023-05-12T01:49:49.701Z,100017.28
2023-05-12T01:52:17.457Z,100015.53
2023-05-12T01:54:44.600Z,100011.19
2023-05-12T01:57:12.891Z,99996.22
2023-05-12T01:59:40.653Z,100025.28
2023-05-12T02:02:08.323Z,100005.09
2023-05-12T02:04:35.603Z,100023.59
2023-05-12T02:07:02.691Z,100017.44
2023-05-12T02:09:30.167Z,99998.09
2023-05-12T02:12:02.398Z,100013.06
2023-05-12T02:14:29.817Z,100014.84
2023-05-12T02:16:57.635Z,100021.03
2023-05-12T02:19:26.855Z,100019.28
2023-05-12T02:22:00.771Z,100006.94
2023-05-12T02:24:28.321Z,100008.72
2023-05-12T02:26:55.513Z,100015.78
2023-05-12T02:29:23.214Z,100023.69
2023-05-12T02:31:50.391Z,100014.00
2023-05-12T02:34:18.013Z,100016.66
2023-05-12T02:36:45.103Z,100014.00
2023-05-12T02:39:13.656Z,100015.81
2023-05-12T02:41:41.324Z,100019.31
2023-05-12T02:44:08.483Z,100006.13
2023-05-12T02:46:36.068Z,100008.78
2023-05-12T02:49:03.196Z,100021.09
2023-05-12T02:51:31.948Z,100022.84
2023-05-12T02:53:58.916Z,100030.81
2023-05-12T02:56:26.208Z,100007.03
2023-05-12T02:58:53.742Z,100029.94
2023-05-12T03:01:21.332Z,100019.38
2023-05-12T03:03:48.519Z,100035.22
2023-05-12T03:06:15.881Z,100029.97
2023-05-12T03:08:44.397Z,100028.19
2023-05-12T03:11:11.790Z,100014.13
2023-05-12T03:13:39.147Z,100026.44
2023-05-12T03:16:07.139Z,100017.69
2023-05-12T03:18:34.501Z,100026.47
2023-05-12T03:21:01.626Z,100007.13
2023-05-12T03:23:28.756Z,100029.13
2023-05-12T03:25:55.823Z,100024.75
2023-05-12T03:28:26.359Z,99997.47
2023-05-12T03:30:54.260Z,100011.53
2023-05-12T03:33:21.408Z,100020.34
2023-05-12T03:35:50.860Z,100008.91
2023-05-12T03:38:18.590Z,100012.44
2023-05-12T03:40:52.611Z,100018.59
2023-05-12T03:43:21.348Z,100022.09
2023-05-12T03:45:49.335Z,100031.75
2023-05-12T03:48:16.711Z,100024.72
2023-05-12T03:50:43.728Z,100032.63
2023-05-12T03:53:10.726Z,100029.09
2023-05-12T03:55:37.844Z,100033.47
2023-05-12T03:58:04.956Z,100029.94
2023-05-12T04:00:33.037Z,100024.63
2023-05-12T04:03:00.799Z,100015.78
2023-05-12T04:05:27.866Z,100026.31
2023-05-12T04:07:54.897Z,100023.56
2023-05-12T04:10:22.418Z,100023.44
2023-05-12T04:12:50.317Z,100027.69
2023-05-12T04:15:17.838Z,100016.88
2023-05-12T04:17:44.992Z,100000.75
2023-05-12T04:20:13.071Z,100019.78
2023-05-12T04:22:40.194Z,100016.69
2023-05-12T04:25:07.632Z,100013.63
2023-05-12T04:27:34.759Z,99986.84
2023-05-12T04:30:01.926Z,100010.25
2023-05-12T04:32:33.253Z,99996.75
2023-05-12T04:35:00.913Z,99997.22
2023-05-12T04:37:31.325Z,99999.69
2023-05-12T04:39:58.341Z,100007.28
2023-05-12T04:42:25.555Z,99995.63
2023-05-12T04:44:52.705Z,100012.81
2023-05-12T04:47:20.136Z,99989.50
2023-05-12T04:49:47.286Z,100006.81
2023-05-12T04:52:14.985Z,99980.06
2023-05-12T04:54:41.999Z,100009.41
2023-05-12T04:57:09.305Z,100013.94
2023-05-12T04:59:36.911Z,99983.16
2023-05-12T05:02:04.537Z,100008.97
2023-05-12T05:04:31.592Z,100007.72
2023-05-12T05:06:58.732Z,100004.00
2023-05-12T05:09:26.020Z,99995.84
2023-05-12T05:11:53.042Z,99987.06
2023-05-12T05:14:20.805Z,100000.41
2023-05-12T05:16:48.641Z,99991.22
2023-05-12T05:19:22.870Z,100004.41
2023-05-12T05:21:57.470Z,100008.63
2023-05-12T05:24:24.645Z,99983.97
2023-05-12T05:26:51.726Z,99979.69
2023-05-12T05:29:19.507Z,99989.84
2023-05-12T05:31:47.250Z,99995.81
2023-05-12T05:34:14.856Z,99977.94
2023-05-12T05:36:42.083Z,100011.38
2023-05-12T05:39:10.610Z,100003.25
2023-05-12T05:41:37.856Z,99994.81
2023-05-12T05:44:05.940Z,99998.44
2023-05-12T05:46:33.298Z,99991.97
2023-05-12T05:49:00.498Z,99999.59
2023-05-12T05:51:27.623Z,99987.69
2023-05-12T05:53:54.689Z,99994.53
2023-05-12T05:56:23.239Z,99975.47
2023-05-12T05:58:50.926Z,99988.69
2023-05-12T06:01:18.259Z,99981.81
2023-05-12T06:03:45.667Z,99998.91
2023-05-12T06:06:12.819Z,99992.75
2023-05-12T06:08:39.899Z,100002.00
2023-05-12T06:11:07.090Z,99992.59
2023-05-12T06:13:34.163Z,100003.56
2023-05-12T06:16:01.263Z,99989.75
2023-05-12T06:18:28.419Z,100001.53
2023-05-12T06:20:56.067Z,99995.00
2023-05-12T06:23:23.264Z,100005.75
2023-05-12T06:25:50.731Z,100006.56
2023-05-12T06:28:17.888Z,100006.38
2023-05-12T06:30:46.310Z,100001.13
2023-05-12T06:33:13.349Z,99978.47
2023-05-12T06:35:40.390Z,99999.53
2023-05-12T06:38:07.599Z,99995.91
2023-05-12T06:40:34.668Z,99987.75
2023-05-12T06:43:01.697Z,99991.66
2023-05-12T06:45:29.062Z,99984.88
2023-05-12T06:47:59.718Z,99974.84
2023-05-12T06:50:28.207Z,99981.19
2023-05-12T06:52:55.205Z,99976.50
2023-05-12T06:55:22.989Z,99978.59
2023-05-12T06:57:55.754Z,99972.28
2023-05-12T07:00:24.246Z,99982.13
2023-05-12T07:02:52.220Z,99964.63
2023-05-12T07:05:19.941Z,99976.94
2023-05-12T07:07:47.180Z,99974.06
2023-05-12T07:10:14.407Z,99976.50
2023-05-12T07:12:41.585Z,99972.81
2023-05-12T07:15:09.827Z,99962.94
2023-05-12T07:17:37.036Z,99965.97
2023-05-12T07:20:05.600Z,99971.47
2023-05-12T07:22:32.887Z,99975.50
2023-05-12T07:24:59.954Z,99964.44
2023-05-12T07:27:27.141Z,99969.41
2023-05-12T07:29:54.423Z,99963.44
2023-05-12T07:32:21.520Z,99962.47
2023-05-12T07:34:48.592Z,99950.13
2023-05-12T07:37:15.712Z,99950.31
2023-05-12T07:39:42.757Z,99968.97
2023-05-12T07:42:09.769Z,99969.41
2023-05-12T07:44:36.776Z,99951.25
2023-05-12T07:47:03.968Z,99955.59
2023-05-12T07:49:31.134Z,99950.03
2023-05-12T07:51:58.252Z,99957.31
2023-05-12T07:54:25.179Z,99960.06
2023-05-12T07:56:52.494Z,99952.19
2023-05-12T07:59:19.640Z,99963.75
2023-05-12T08:01:46.752Z,99954.41
2023-05-12T08:04:13.967Z,99944.53
2023-05-12T08:06:41.239Z,99946.44
2023-05-12T08:09:08.320Z,99955.69
2023-05-12T08:11:35.392Z,99953.59
2023-05-12T08:14:02.355Z,99943.19
2023-05-12T08:16:29.514Z,99941.25
2023-05-12T08:18:56.684Z,99932.78
2023-05-12T08:21:24.106Z,99934.13
2023-05-12T08:23:51.152Z,99939.00
2023-05-12T08:26:18.301Z,99942.16
2023-05-12T08:28:45.315Z,99930.50
2023-05-12T08:31:12.674Z,99913.94
2023-05-12T08:33:39.843Z,99917.41
2023-05-12T08:36:07.072Z,99932.66
2023-05-12T08:38:34.149Z,99930.13
2023-05-12T08:41:39.873Z,99917.44
2023-05-12T08:44:08.899Z,99927.69
2023-05-12T08:46:36.169Z,99925.97
2023-05-12T08:49:04.973Z,99916.44
2023-05-12T08:51:33.393Z,99905.25
2023-05-12T08:54:01.000Z,99915.44
2023-05-12T08:58:59.577Z,99919.22
2023-05-12T09:01:27.113Z,99920.22
2023-05-12T09:03:54.307Z,99910.06
2023-05-12T09:06:21.954Z,99893.69
2023-05-12T09:08:49.268Z,99909.72
2023-05-12T09:11:17.328Z,99901.25
2023-05-12T09:14:18.810Z,99905.16
2023-05-12T09:16:49.425Z,99911.34
2023-05-12T09:19:22.667Z,99903.34
2023-05-12T09:21:49.773Z,99905.06
2023-05-12T09:24:16.773Z,99903.19
2023-05-12T09:26:52.548Z,99895.38
2023-05-12T09:29:30.043Z,99904.13
2023-05-12T09:32:04.418Z,99893.50
2023-05-12T09:34:38.516Z,99909.06
2023-05-12T09:37:07.865Z,99899.88
2023-05-12T09:39:36.316Z,99885.78
2023-05-12T09:42:03.770Z,99888.31
2023-05-12T09:44:32.542Z,99890.13
2023-05-12T09:47:10.530Z,99889.63
2023-05-12T09:49:38.507Z,99886.06
2023-05-12T09:52:06.301Z,99878.16
2023-05-12T09:54:34.615Z,99898.97
2023-05-12T09:57:07.007Z,99892.72
2023-05-12T09:59:36.264Z,99891.03
2023-05-12T10:02:07.058Z,99881.13
2023-05-12T10:04:53.240Z,99880.19
2023-05-12T10:07:24.674Z,99880.78
2023-05-12T10:09:52.909Z,99869.59
2023-05-12T10:12:19.883Z,99870.41
2023-05-12T10:14:48.512Z,99874.81
2023-05-12T10:17:16.096Z,99875.66
2023-05-12T10:19:44.699Z,99846.91
2023-05-12T10:22:12.012Z,99859.63
2023-05-12T10:24:41.098Z,99883.00
2023-05-12T10:27:08.456Z,99874.13
2023-05-12T10:29:37.790Z,99875.00
2023-05-12T10:32:06.654Z,99873.84
2023-05-12T10:34:37.125Z,99872.81
2023-05-12T10:37:11.119Z,99878.88
2023-05-12T10:39:47.838Z,99857.16
2023-05-12T10:42:17.716Z,99869.09
2023-05-12T10:44:54.722Z,99872.88
2023-05-12T10:47:37.923Z,99871.03
2023-05-12T10:50:05.760Z,99863.16
2023-05-12T10:52:33.650Z,99856.25
2023-05-12T10:55:02.276Z,99867.78
2023-05-12T10:57:33.965Z,99862.72
2023-05-12T11:00:02.858Z,99858.00
2023-05-12T11:02:36.939Z,99853.63
2023-05-12T11:05:17.448Z,99858.56
2023-05-12T11:07:50.138Z,99868.47
2023-05-12T11:10:18.245Z,99861.53
2023-05-12T11:12:45.756Z,99854.22
2023-05-12T11:15:13.727Z,99865.56
2023-05-12T11:17:41.646Z,99869.53
2023-05-12T11:20:12.294Z,99864.84
2023-05-12T11:22:41.118Z,99863.25
2023-05-12T11:25:12.643Z,99865.66
2023-05-12T11:27:43.455Z,99857.66
2023-05-12T11:30:11.305Z,99870.78
2023-05-12T11:32:38.879Z,99853.84
2023-05-12T11:35:10.175Z,99868.03
2023-05-12T11:37:39.567Z,99866.31
2023-05-12T11:40:21.104Z,99853.63
2023-05-12T11:42:52.895Z,99868.25
2023-05-12T11:45:28.989Z,99867.84
2023-05-12T11:48:11.694Z,99870.53
2023-05-12T11:50:41.224Z,99872.25
2023-05-12T11:53:17.463Z,99855.13
2023-05-12T11:56:02.753Z,99862.28
2023-05-12T11:58:30.851Z,99872.00
2023-05-12T12:01:10.191Z,99858.78
2023-05-12T12:03:48.753Z,99861.22
2023-05-12T12:06:16.461Z,99862.16
2023-05-12T12:09:10.315Z,99855.72
2023-05-12T12:11:37.426Z,99862.47
2023-05-12T12:14:04.960Z,99846.91
2023-05-12T12:16:32.589Z,99848.63
2023-05-12T12:18:59.847Z,99851.97
2023-05-12T12:21:27.130Z,99844.44
2023-05-12T12:23:54.092Z,99836.84
2023-05-12T12:26:21.739Z,99827.44
2023-05-12T12:28:49.205Z,99848.34
2023-05-12T12:31:16.943Z,99840.06
2023-05-12T12:33:44.221Z,99824.84
2023-05-12T12:36:11.388Z,99841.03
2023-05-12T12:38:38.447Z,99809.50
2023-05-12T12:41:07.094Z,99803.25
2023-05-12T12:43:34.142Z,99825.13
2023-05-12T12:46:01.199Z,99821.25
2023-05-12T12:48:29.038Z,99828.34
2023-05-12T12:50:56.268Z,99807.41
2023-05-12T12:53:23.295Z,99821.72
2023-05-12T12:55:50.268Z,99814.44
2023-05-12T12:58:17.345Z,99822.97
2023-05-12T13:00:44.476Z,99810.06
2023-05-12T13:03:11.680Z,99824.00
2023-05-12T13:05:39.048Z,99803.16
2023-05-12T13:08:06.431Z,99823.41
2023-05-12T13:10:33.699Z,99819.91
2023-05-12T13:13:00.977Z,99824.63
2023-05-12T13:15:28.140Z,99810.56
2023-05-12T13:17:55.266Z,99801.47
2023-05-12T13:20:22.463Z,99816.13
2023-05-12T13:22:49.792Z,99808.22
2023-05-12T13:25:17.075Z,99808.50
2023-05-12T13:27:44.272Z,99800.50
2023-05-12T13:30:13.769Z,99801.31
2023-05-12T13:32:41.670Z,99787.81
2023-05-12T13:35:09.457Z,99791.25
2023-05-12T13:37:37.518Z,99797.03
2023-05-12T13:40:04.985Z,99802.44
2023-05-12T13:42:32.630Z,99796.81
2023-05-12T13:44:59.813Z,99794.59
2023-05-12T13:47:27.665Z,99795.91
2023-05-12T13:49:56.619Z,99797.44
2023-05-12T13:52:23.668Z,99800.72
2023-05-12T13:54:51.382Z,99785.09
2023-05-12T13:57:18.490Z,99799.56
2023-05-12T13:59:45.582Z,99794.84
2023-05-12T14:02:13.967Z,99801.91
2023-05-12T14:04:41.223Z,99796.00
2023-05-12T14:07:08.873Z,99798.06
2023-05-12T14:09:36.367Z,99786.97
2023-05-12T14:12:04.508Z,99785.78
2023-05-12T14:14:31.797Z,99794.94
2023-05-12T14:16:59.135Z,99784.13
2023-05-12T14:19:26.160Z,99780.53
2023-05-12T14:21:53.207Z,99750.00
2023-05-12T14:24:20.553Z,99781.03
2023-05-12T14:26:47.711Z,99778.81
2023-05-12T14:29:14.841Z,99766.47
2023-05-12T14:31:42.048Z,99775.72
2023-05-12T14:34:09.459Z,99774.25
2023-05-12T14:36:36.861Z,99783.75
2023-05-12T14:39:04.098Z,99778.91
2023-05-12T14:41:31.260Z,99786.72
2023-05-12T14:43:58.863Z,99790.19
2023-05-12T14:46:26.080Z,99778.22
2023-05-12T14:48:53.280Z,99759.44
2023-05-12T14:51:20.343Z,99769.44
2023-05-12T14:53:47.398Z,99768.16
2023-05-12T14:56:14.842Z,99761.13
2023-05-12T14:58:41.852Z,99784.31
2023-05-12T15:01:09.696Z,99791.06
2023-05-12T15:03:37.115Z,99771.97
2023-05-12T15:06:07.820Z,99773.00
2023-05-12T15:08:35.550Z,99773.53
2023-05-12T15:11:02.648Z,99774.13
2023-05-12T15:13:29.751Z,99777.88
2023-05-12T15:15:57.173Z,99775.69
2023-05-12T15:18:24.655Z,99771.03
2023-05-12T15:20:52.088Z,99778.94
2023-05-12T15:23:19.280Z,99768.16
2023-05-12T15:25:46.358Z,99769.88
2023-05-12T15:28:13.780Z,99778.34
2023-05-12T15:30:40.935Z,99773.78
2023-05-12T15:33:08.174Z,99774.06
2023-05-12T15:35:35.459Z,99767.81
2023-05-12T15:38:03.165Z,99779.16
2023-05-12T15:40:31.197Z,99774.44
2023-05-12T15:42:58.598Z,99770.88
2023-05-12T15:45:25.958Z,99746.81
2023-05-12T15:47:53.276Z,99756.91
2023-05-12T15:50:22.930Z,99773.69
2023-05-12T15:52:51.194Z,99769.22
2023-05-12T15:55:18.877Z,99758.97
2023-05-12T15:57:47.871Z,99769.38
2023-05-12T16:00:17.524Z,99761.31
2023-05-12T16:02:44.728Z,99773.34
2023-05-12T16:05:12.274Z,99772.28
2023-05-12T16:07:39.687Z,99780.69
2023-05-12T16:10:07.258Z,99772.16
2023-05-12T16:12:34.653Z,99767.41
2023-05-12T16:15:02.432Z,99765.81
2023-05-12T16:17:34.331Z,99770.41
2023-05-12T16:20:02.153Z,99769.69
2023-05-12T16:22:32.042Z,99739.25
2023-05-12T16:24:59.261Z,99770.13
2023-05-12T16:27:27.011Z,99765.59
2023-05-12T16:29:54.294Z,99766.09
2023-05-12T16:32:21.487Z,99778.91
2023-05-12T16:34:48.925Z,99768.81
2023-05-12T16:37:16.004Z,99780.41
2023-05-12T16:39:43.306Z,99779.88
2023-05-12T16:42:10.780Z,99778.06
2023-05-12T16:44:37.800Z,99767.91
2023-05-12T16:47:05.865Z,99767.06
2023-05-12T16:49:33.064Z,99773.63
2023-05-12T16:52:00.201Z,99788.69
2023-05-12T16:54:27.294Z,99785.41
2023-05-12T16:56:56.577Z,99789.19
2023-05-12T16:59:23.694Z,99793.13
2023-05-12T17:01:51.025Z,99777.56
2023-05-12T17:04:18.201Z,99792.19
2023-05-12T17:06:45.269Z,99786.41
2023-05-12T17:09:12.386Z,99792.19
2023-05-12T17:11:39.404Z,99793.59
2023-05-12T17:14:06.477Z,99791.22
2023-05-12T17:16:33.586Z,99793.44
2023-05-12T17:21:31.532Z,99798.88
2023-05-12T17:23:58.615Z,99810.00
2023-05-12T17:26:27.841Z,99796.09
2023-05-12T17:28:55.643Z,99812.50
2023-05-12T17:31:22.947Z,99804.97
2023-05-12T17:33:50.107Z,99802.34
2023-05-12T17:36:18.858Z,99806.91
2023-05-12T17:38:46.432Z,99789.47
2023-05-12T17:41:13.731Z,99813.50
2023-05-12T17:43:41.568Z,99816.78
2023-05-12T17:46:09.336Z,99805.03
2023-05-12T17:48:36.763Z,99818.69
2023-05-12T17:51:04.763Z,99811.16
2023-05-12T17:53:32.845Z,99816.38
2023-05-12T17:56:00.706Z,99822.34
2023-05-12T17:58:28.011Z,99804.03
2023-05-12T18:00:55.187Z,99814.16
2023-05-12T18:03:27.107Z,99809.53
2023-05-12T18:05:57.174Z,99821.22
2023-05-12T18:08:24.070Z,99823.72
2023-05-12T18:10:51.297Z,99804.03
2023-05-12T18:13:18.446Z,99823.31
2023-05-12T18:15:45.539Z,99831.28
2023-05-12T18:18:14.617Z,99804.75
2023-05-12T18:20:42.371Z,99829.63
2023-05-12T18:23:09.530Z,99829.63
2023-05-12T18:25:36.789Z,99832.94
2023-05-12T18:28:03.982Z,99830.44
2023-05-12T18:30:31.127Z,99831.50
2023-05-12T18:32:58.233Z,99824.13
2023-05-12T18:35:27.147Z,99830.59
2023-05-12T18:37:54.659Z,99831.09
2023-05-12T18:40:21.966Z,99834.56
2023-05-12T18:42:49.230Z,99802.91
2023-05-12T18:45:16.475Z,99837.50
2023-05-12T18:47:43.892Z,99834.94
2023-05-12T18:50:11.431Z,99839.22
2023-05-12T18:52:38.518Z,99841.06
2023-05-12T18:55:06.340Z,99841.16
2023-05-12T18:57:34.066Z,99820.63
2023-05-12T19:00:01.419Z,99827.59
2023-05-12T19:02:35.571Z,99829.63
2023-05-12T19:05:02.985Z,99837.41
2023-05-12T19:07:32.410Z,99833.13
2023-05-12T19:10:00.568Z,99834.91
2023-05-12T19:12:27.719Z,99833.47
2023-05-12T19:14:54.722Z,99832.06
2023-05-12T19:17:22.257Z,99829.63
2023-05-12T19:19:50.734Z,99835.28
2023-05-12T19:22:18.065Z,99841.41
2023-05-12T19:24:45.290Z,99839.41
2023-05-12T19:27:12.405Z,99826.88
2023-05-12T19:29:39.604Z,99841.81
2023-05-12T19:32:07.212Z,99837.94
2023-05-12T19:34:34.673Z,99837.44
2023-05-12T19:37:02.037Z,99822.22
2023-05-12T19:39:29.492Z,99833.63
2023-05-12T19:41:56.566Z,99840.53
2023-05-12T19:44:23.854Z,99831.44
2023-05-12T19:46:51.787Z,99837.38
2023-05-12T19:49:18.970Z,99827.22
2023-05-12T19:51:46.290Z,99838.00
2023-05-12T19:54:13.619Z,99833.22
2023-05-12T19:56:42.951Z,99815.91
2023-05-12T19:59:10.002Z,99831.41
2023-05-12T20:01:37.091Z,99842.59
2023-05-12T20:04:04.286Z,99838.47
2023-05-12T20:06:31.318Z,99820.13
2023-05-12T20:08:58.443Z,99827.13
2023-05-12T20:11:25.774Z,99827.31
2023-05-12T20:13:52.873Z,99827.09
2023-05-12T20:16:19.937Z,99836.53
2023-05-12T20:18:47.041Z,99820.91
2023-05-12T20:21:14.088Z,99826.22
2023-05-12T20:23:41.806Z,99825.16
2023-05-12T20:26:10.117Z,99819.81
2023-05-12T20:28:37.160Z,99830.78
2023-05-12T20:31:04.290Z,99839.28
2023-05-12T20:33:32.436Z,99824.47
2023-05-12T20:35:59.339Z,99840.13
2023-05-12T20:38:26.871Z,99839.50
2023-05-12T20:40:54.199Z,99833.78
2023-05-12T20:43:21.675Z,99831.19
2023-05-12T20:45:48.961Z,99826.00
2023-05-12T20:48:16.070Z,99836.41
2023-05-12T20:50:43.991Z,99841.72
2023-05-12T20:53:11.146Z,99853.72
2023-05-12T20:55:43.110Z,99842.00
2023-05-12T20:58:10.381Z,99842.41
2023-05-12T21:00:37.401Z,99842.91
2023-05-12T21:03:05.701Z,99839.72
2023-05-12T21:05:33.407Z,99841.81
2023-05-12T21:08:00.428Z,99837.59
2023-05-12T21:10:27.451Z,99838.72
2023-05-12T21:12:54.452Z,99843.34
2023-05-12T21:15:21.519Z,99848.81
2023-05-12T21:17:48.725Z,99847.16
2023-05-12T21:20:15.750Z,99857.09
2023-05-12T21:22:42.937Z,99855.50
2023-05-12T21:25:10.460Z,99838.88
2023-05-12T21:27:41.435Z,99822.53
2023-05-12T21:30:10.281Z,99859.34
2023-05-12T21:32:37.607Z,99838.38
2023-05-12T21:35:05.083Z,99838.47
2023-05-12T21:37:33.297Z,99843.84
2023-05-12T21:40:00.611Z,99836.91
2023-05-12T21:42:27.950Z,99842.34
2023-05-12T21:44:55.210Z,99840.84
2023-05-12T21:47:22.439Z,99845.38
2023-05-12T21:49:55.113Z,99820.13
2023-05-12T21:52:22.807Z,99845.84
2023-05-12T21:54:49.941Z,99846.91
2023-05-12T21:57:17.188Z,99842.56
2023-05-12T21:59:44.862Z,99831.34
2023-05-12T22:02:12.113Z,99831.50
2023-05-12T22:04:39.425Z,99820.97
2023-05-12T22:07:06.566Z,99832.34
2023-05-12T22:09:33.740Z,99830.56
2023-05-12T22:12:00.786Z,99830.63
2023-05-12T22:14:27.784Z,99831.59
2023-05-12T22:16:56.064Z,99840.41
2023-05-12T22:19:23.776Z,99837.91
2023-05-12T22:21:51.776Z,99830.03
2023-05-12T22:24:18.891Z,99842.50
2023-05-12T22:26:46.141Z,99842.66
2023-05-12T22:29:13.191Z,99851.56
2023-05-12T22:31:40.462Z,99830.63
2023-05-12T22:34:07.904Z,99834.16
2023-05-12T22:36:35.090Z,99843.00
2023-05-12T22:39:02.400Z,99837.88
2023-05-12T22:41:29.746Z,99843.16
2023-05-12T22:43:57.644Z,99836.25
2023-05-12T22:46:25.003Z,99848.56
2023-05-12T22:48:52.800Z,99848.66
2023-05-12T22:51:20.143Z,99845.22
2023-05-12T22:53:47.238Z,99835.56
2023-05-12T22:56:14.592Z,99862.16
2023-05-12T22:58:41.735Z,99824.44
2023-05-12T23:01:08.857Z,99856.09
2023-05-12T23:03:36.326Z,99851.72
2023-05-12T23:06:03.460Z,99850.94
2023-05-12T23:08:30.616Z,99849.25
2023-05-12T23:10:57.677Z,99834.41
2023-05-12T23:13:24.948Z,99838.81
2023-05-12T23:15:52.040Z,99827.44
2023-05-12T23:18:37.585Z,99835.34
2023-05-12T23:21:04.607Z,99850.34
2023-05-12T23:23:33.248Z,99853.91
2023-05-12T23:26:00.277Z,99849.59
2023-05-12T23:28:27.354Z,99851.41
2023-05-12T23:30:54.513Z,99849.66
2023-05-12T23:33:21.764Z,99839.09
2023-05-12T23:35:49.077Z,99851.41
2023-05-12T23:38:16.466Z,99846.22
2023-05-12T23:40:43.602Z,99846.22
2023-05-12T23:43:10.633Z,99830.44
2023-05-12T23:45:37.911Z,99827.91
2023-05-12T23:48:05.314Z,99843.78
2023-05-12T23:50:32.482Z,99848.22
2023-05-12T23:52:59.489Z,99849.06
2023-05-12T23:55:26.633Z,99847.31
2023-05-12T23:57:53.724Z,99822.72
